Decoded Metar for KGGE (GEORGETOWN in SC, USA) (IATA:GGE) | Meteo·Mobile Aviation Weather
aviador You're here:

KGGE Decoded Metar

GEORGETOWN in SC, USA
Report Time2019-10-18 14:15:00
UTC Time2019-10-18 14:16:32
Flight Rules vfr VFR
Wind030° at 06 kt
W.Decomp.*RWY 05: 5.8 kt HW 1.5 kt LCW
RWY 11: 1.7 kt HW 5.8 kt LCW
Visibility9999 m
Phenomena:N/A
Clouds:N/A
Expected CloudBase > 4,000 ft AGL from Temp-Dew spread
CeilingNone
Temp15°C (ISA 0)
Dew Point05°C (51% RH)
AAT11.7°C
QNH1018 hPa
Density Alt0 ft
Elevation39 ft
Report Wrong Elevation
Raw Report
METAR KGGE 181415Z AUTO 03006KT 10SM CLR 15/05 A3006 RMK AO2=

Extra information for KGGE:More info

Metar Taf Metar & Taf Last 4 Metars F.Rules Stats Wind Profile Meteogram Temp Stats Airport Information Weather charts Add Link Nearby VenuesMetar ALERT Operation Metar Decoded Social comments

AIRNAV info for KGGE